sensor_id;sensor_type;location;lat;lon;timestamp;pressure;altitude;pressure_sealevel;temperature;humidity
40692;BME280;26377;53.344;14.886;2022-11-20T00:01:26;100846.94;;;2.72;73.38
40692;BME280;26377;53.344;14.886;2022-11-20T00:03:53;100839.90;;;2.74;73.43
40692;BME280;26377;53.344;14.886;2022-11-20T00:06:22;100838.16;;;2.74;73.33
40692;BME280;26377;53.344;14.886;2022-11-20T00:08:51;100838.16;;;2.74;73.36
40692;BME280;26377;53.344;14.886;2022-11-20T00:11:22;100839.90;;;2.74;73.33
40692;BME280;26377;53.344;14.886;2022-11-20T00:13:53;100833.33;;;2.75;73.36
40692;BME280;26377;53.344;14.886;2022-11-20T00:16:23;100828.09;;;2.75;73.36
40692;BME280;26377;53.344;14.886;2022-11-20T00:18:54;100835.52;;;2.76;73.34
40692;BME280;26377;53.344;14.886;2022-11-20T00:21:23;100839.90;;;2.74;73.33
40692;BME280;26377;53.344;14.886;2022-11-20T00:23:54;100844.27;;;2.75;73.33
40692;BME280;26377;53.344;14.886;2022-11-20T00:26:24;100844.68;;;2.76;73.33
40692;BME280;26377;53.344;14.886;2022-11-20T00:28:56;100842.96;;;2.75;73.34
40692;BME280;26377;53.344;14.886;2022-11-20T00:31:25;100844.70;;;2.74;73.34
40692;BME280;26377;53.344;14.886;2022-11-20T00:33:53;100844.22;;;2.76;73.35
40692;BME280;26377;53.344;14.886;2022-11-20T00:36:23;100842.88;;;2.78;73.42
40692;BME280;26377;53.344;14.886;2022-11-20T00:38:57;100845.50;;;2.78;73.41
40692;BME280;26377;53.344;14.886;2022-11-20T00:41:22;100845.06;;;2.78;73.39
40692;BME280;26377;53.344;14.886;2022-11-20T00:43:55;100850.72;;;2.79;73.42
40692;BME280;26377;53.344;14.886;2022-11-20T00:46:24;100847.66;;;2.80;73.41
40692;BME280;26377;53.344;14.886;2022-11-20T00:48:52;100851.15;;;2.79;73.37
40692;BME280;26377;53.344;14.886;2022-11-20T00:51:23;100846.81;;;2.78;73.35
40692;BME280;26377;53.344;14.886;2022-11-20T00:53:52;100851.15;;;2.79;73.38
40692;BME280;26377;53.344;14.886;2022-11-20T00:56:24;100851.59;;;2.80;73.36
40692;BME280;26377;53.344;14.886;2022-11-20T00:58:51;100847.66;;;2.80;73.38
40692;BME280;26377;53.344;14.886;2022-11-20T01:01:25;100852.44;;;2.80;73.39
40692;BME280;26377;53.344;14.886;2022-11-20T01:03:54;100848.05;;;2.82;73.46
40692;BME280;26377;53.344;14.886;2022-11-20T01:06:26;100852.83;;;2.83;73.43
40692;BME280;26377;53.344;14.886;2022-11-20T01:09:04;100850.20;;;2.83;73.40
40692;BME280;26377;53.344;14.886;2022-11-20T01:11:36;100848.89;;;2.83;73.36
40692;BME280;26377;53.344;14.886;2022-11-20T01:14:09;100851.10;;;2.82;73.42
40692;BME280;26377;53.344;14.886;2022-11-20T01:16:41;100851.98;;;2.82;73.40
40692;BME280;26377;53.344;14.886;2022-11-20T01:19:16;100845.86;;;2.82;73.38
40692;BME280;26377;53.344;14.886;2022-11-20T01:21:49;100844.14;;;2.81;73.37
40692;BME280;26377;53.344;14.886;2022-11-20T01:24:20;100840.65;;;2.80;73.36
40692;BME280;26377;53.344;14.886;2022-11-20T01:26:50;100841.95;;;2.80;73.39
40692;BME280;26377;53.344;14.886;2022-11-20T01:29:22;100835.00;;;2.79;73.38
40692;BME280;26377;53.344;14.886;2022-11-20T01:31:50;100834.59;;;2.78;73.39
40692;BME280;26377;53.344;14.886;2022-11-20T01:34:21;100831.56;;;2.77;73.40
40692;BME280;26377;53.344;14.886;2022-11-20T01:36:49;100834.13;;;2.79;73.46
40692;BME280;26377;53.344;14.886;2022-11-20T01:39:26;100830.66;;;2.78;73.43
40692;BME280;26377;53.344;14.886;2022-11-20T01:41:54;100822.83;;;2.77;73.42
40692;BME280;26377;53.344;14.886;2022-11-20T01:44:56;100840.27;;;2.78;73.39
40692;BME280;26377;53.344;14.886;2022-11-20T01:47:43;100838.98;;;2.76;73.40
40692;BME280;26377;53.344;14.886;2022-11-20T01:50:26;100831.17;;;2.75;73.42
40692;BME280;26377;53.344;14.886;2022-11-20T01:53:02;100835.95;;;2.75;73.46
40692;BME280;26377;53.344;14.886;2022-11-20T01:55:37;100826.37;;;2.74;73.42
40692;BME280;26377;53.344;14.886;2022-11-20T01:58:07;100829.86;;;2.75;73.46
40692;BME280;26377;53.344;14.886;2022-11-20T02:00:35;100826.88;;;2.71;73.41
40692;BME280;26377;53.344;14.886;2022-11-20T02:03:07;100828.22;;;2.69;73.42
40692;BME280;26377;53.344;14.886;2022-11-20T02:08:28;100816.94;;;2.66;73.43
40692;BME280;26377;53.344;14.886;2022-11-20T02:10:55;100819.13;;;2.65;73.44
40692;BME280;26377;53.344;14.886;2022-11-20T02:13:23;100817.87;;;2.63;73.47
40692;BME280;26377;53.344;14.886;2022-11-20T02:16:12;100813.94;;;2.63;73.46
40692;BME280;26377;53.344;14.886;2022-11-20T02:18:55;100818.32;;;2.61;73.46
40692;BME280;26377;53.344;14.886;2022-11-20T02:24:14;100815.34;;;2.57;73.49
40692;BME280;26377;53.344;14.886;2022-11-20T02:29:48;100814.50;;;2.57;73.53
40692;BME280;26377;53.344;14.886;2022-11-20T02:32:23;100812.72;;;2.57;73.55
40692;BME280;26377;53.344;14.886;2022-11-20T02:34:55;100807.08;;;2.56;73.55
40692;BME280;26377;53.344;14.886;2022-11-20T02:37:27;100814.52;;;2.55;73.54
40692;BME280;26377;53.344;14.886;2022-11-20T02:39:55;100809.72;;;2.55;73.51
40692;BME280;26377;53.344;14.886;2022-11-20T02:42:23;100809.30;;;2.54;73.52
40692;BME280;26377;53.344;14.886;2022-11-20T02:44:50;100811.05;;;2.53;73.54
40692;BME280;26377;53.344;14.886;2022-11-20T02:47:17;100810.64;;;2.52;73.51
40692;BME280;26377;53.344;14.886;2022-11-20T02:49:44;100812.87;;;2.50;73.50
40692;BME280;26377;53.344;14.886;2022-11-20T02:52:12;100810.68;;;2.49;73.55
40692;BME280;26377;53.344;14.886;2022-11-20T02:54:39;100811.58;;;2.48;73.53
40692;BME280;26377;53.344;14.886;2022-11-20T02:57:06;100811.15;;;2.49;73.61
40692;BME280;26377;53.344;14.886;2022-11-20T02:59:33;100808.53;;;2.49;73.62
40692;BME280;26377;53.344;14.886;2022-11-20T03:02:01;100808.97;;;2.48;73.63
40692;BME280;26377;53.344;14.886;2022-11-20T03:04:28;100810.27;;;2.48;73.61
40692;BME280;26377;53.344;14.886;2022-11-20T03:06:55;100808.98;;;2.47;73.63
40692;BME280;26377;53.344;14.886;2022-11-20T03:09:22;100805.52;;;2.46;73.65
40692;BME280;26377;53.344;14.886;2022-11-20T03:11:49;100801.62;;;2.45;73.59
40692;BME280;26377;53.344;14.886;2022-11-20T03:14:17;100805.98;;;2.44;73.64
40692;BME280;26377;53.344;14.886;2022-11-20T03:16:44;100803.83;;;2.44;73.66
40692;BME280;26377;53.344;14.886;2022-11-20T03:19:11;100796.42;;;2.42;73.64
40692;BME280;26377;53.344;14.886;2022-11-20T03:21:38;100795.58;;;2.41;73.68
40692;BME280;26377;53.344;14.886;2022-11-20T03:24:06;100793.81;;;2.42;73.72
40692;BME280;26377;53.344;14.886;2022-11-20T03:26:33;100799.92;;;2.42;73.72
40692;BME280;26377;53.344;14.886;2022-11-20T03:29:02;100789.86;;;2.43;73.74
40692;BME280;26377;53.344;14.886;2022-11-20T03:31:34;100789.86;;;2.43;73.73
40692;BME280;26377;53.344;14.886;2022-11-20T03:34:03;100791.64;;;2.43;73.74
40692;BME280;26377;53.344;14.886;2022-11-20T03:36:31;100792.94;;;2.43;73.73
40692;BME280;26377;53.344;14.886;2022-11-20T03:38:59;100798.18;;;2.43;73.70
40692;BME280;26377;53.344;14.886;2022-11-20T03:41:31;100792.06;;;2.42;73.72
40692;BME280;26377;53.344;14.886;2022-11-20T03:44:06;100789.06;;;2.40;73.67
40692;BME280;26377;53.344;14.886;2022-11-20T03:46:35;100786.88;;;2.39;73.75
40692;BME280;26377;53.344;14.886;2022-11-20T03:49:02;100786.03;;;2.39;73.77
40692;BME280;26377;53.344;14.886;2022-11-20T03:51:32;100776.02;;;2.37;73.74
40692;BME280;26377;53.344;14.886;2022-11-20T03:54:07;100773.87;;;2.36;73.78
40692;BME280;26377;53.344;14.886;2022-11-20T03:56:35;100774.70;;;2.37;73.83
40692;BME280;26377;53.344;14.886;2022-11-20T03:59:04;100767.73;;;2.37;73.79
40692;BME280;26377;53.344;14.886;2022-11-20T04:01:34;100770.38;;;2.36;73.73
40692;BME280;26377;53.344;14.886;2022-11-20T04:04:03;100763.01;;;2.34;73.73
40692;BME280;26377;53.344;14.886;2022-11-20T04:06:34;100766.95;;;2.32;73.68
40692;BME280;26377;53.344;14.886;2022-11-20T04:09:04;100767.88;;;2.30;73.68
40692;BME280;26377;53.344;14.886;2022-11-20T04:11:34;100770.11;;;2.27;73.67
40692;BME280;26377;53.344;14.886;2022-11-20T04:14:05;100767.52;;;2.26;73.69
40692;BME280;26377;53.344;14.886;2022-11-20T04:16:35;100769.28;;;2.24;73.71
40692;BME280;26377;53.344;14.886;2022-11-20T04:19:05;100766.25;;;2.23;73.75
40692;BME280;26377;53.344;14.886;2022-11-20T04:21:34;100775.41;;;2.23;73.78
40692;BME280;26377;53.344;14.886;2022-11-20T04:24:02;100768.48;;;2.20;73.79
40692;BME280;26377;53.344;14.886;2022-11-20T04:26:31;100763.71;;;2.20;73.86
40692;BME280;26377;53.344;14.886;2022-11-20T04:29:00;100770.66;;;2.21;73.83
40692;BME280;26377;53.344;14.886;2022-11-20T04:31:34;100767.17;;;2.20;73.90
40692;BME280;26377;53.344;14.886;2022-11-20T04:34:03;100761.50;;;2.21;73.89
40692;BME280;26377;53.344;14.886;2022-11-20T04:36:31;100763.66;;;2.21;73.91
40692;BME280;26377;53.344;14.886;2022-11-20T04:39:01;100766.76;;;2.19;73.99
40692;BME280;26377;53.344;14.886;2022-11-20T04:41:32;100759.73;;;2.21;73.98
40692;BME280;26377;53.344;14.886;2022-11-20T04:44:01;100761.03;;;2.21;73.98
40692;BME280;26377;53.344;14.886;2022-11-20T04:46:34;100765.84;;;2.22;74.02
40692;BME280;26377;53.344;14.886;2022-11-20T04:49:03;100760.56;;;2.25;74.03
40692;BME280;26377;53.344;14.886;2022-11-20T04:51:30;100753.55;;;2.25;74.01
40692;BME280;26377;53.344;14.886;2022-11-20T04:53:58;100753.12;;;2.26;74.05
40692;BME280;26377;53.344;14.886;2022-11-20T04:56:25;100749.60;;;2.27;74.03
40692;BME280;26377;53.344;14.886;2022-11-20T04:58:52;100754.81;;;2.28;74.07
40692;BME280;26377;53.344;14.886;2022-11-20T05:01:22;100757.84;;;2.29;74.06
40692;BME280;26377;53.344;14.886;2022-11-20T05:03:50;100755.22;;;2.29;74.05
40692;BME280;26377;53.344;14.886;2022-11-20T05:06:19;100753.51;;;2.28;74.01
40692;BME280;26377;53.344;14.886;2022-11-20T05:08:47;100754.33;;;2.30;74.02
40692;BME280;26377;53.344;14.886;2022-11-20T05:11:18;100751.32;;;2.28;74.00
40692;BME280;26377;53.344;14.886;2022-11-20T05:13:46;100739.56;;;2.26;74.00
40692;BME280;26377;53.344;14.886;2022-11-20T05:16:24;100745.27;;;2.26;73.98
40692;BME280;26377;53.344;14.886;2022-11-20T05:18:50;100743.57;;;2.23;73.97
40692;BME280;26377;53.344;14.886;2022-11-20T05:21:19;100742.28;;;2.22;73.96
40692;BME280;26377;53.344;14.886;2022-11-20T05:23:46;100743.18;;;2.21;74.01
40692;BME280;26377;53.344;14.886;2022-11-20T05:26:20;100740.09;;;2.21;73.97
40692;BME280;26377;53.344;14.886;2022-11-20T05:28:45;100737.09;;;2.19;73.96
40692;BME280;26377;53.344;14.886;2022-11-20T05:31:16;100737.15;;;2.17;73.96
40692;BME280;26377;53.344;14.886;2022-11-20T05:33:44;100741.09;;;2.16;73.99
40692;BME280;26377;53.344;14.886;2022-11-20T05:36:14;100745.05;;;2.14;73.96
40692;BME280;26377;53.344;14.886;2022-11-20T05:38:42;100748.17;;;2.11;74.01
40692;BME280;26377;53.344;14.886;2022-11-20T05:41:13;100749.50;;;2.09;73.97
40692;BME280;26377;53.344;14.886;2022-11-20T05:43:44;100753.45;;;2.08;74.00
40692;BME280;26377;53.344;14.886;2022-11-20T05:46:14;100750.81;;;2.09;74.10
40692;BME280;26377;53.344;14.886;2022-11-20T05:48:43;100749.48;;;2.11;74.15
40692;BME280;26377;53.344;14.886;2022-11-20T05:51:14;100756.84;;;2.13;74.12
40692;BME280;26377;53.344;14.886;2022-11-20T05:53:44;100744.64;;;2.13;74.18
40692;BME280;26377;53.344;14.886;2022-11-20T05:56:18;100741.09;;;2.16;74.21
40692;BME280;26377;53.344;14.886;2022-11-20T05:58:47;100738.91;;;2.15;74.21
40692;BME280;26377;53.344;14.886;2022-11-20T06:01:17;100728.83;;;2.18;74.23
40692;BME280;26377;53.344;14.886;2022-11-20T06:03:46;100737.07;;;2.20;74.25
40692;BME280;26377;53.344;14.886;2022-11-20T06:06:15;100728.32;;;2.21;74.23
40692;BME280;26377;53.344;14.886;2022-11-20T06:08:43;100728.77;;;2.22;74.27
40692;BME280;26377;53.344;14.886;2022-11-20T06:11:12;100731.33;;;2.24;74.27
40692;BME280;26377;53.344;14.886;2022-11-20T06:13:42;100730.00;;;2.25;74.25
40692;BME280;26377;53.344;14.886;2022-11-20T06:16:10;100734.80;;;2.26;74.29
40692;BME280;26377;53.344;14.886;2022-11-20T06:18:39;100724.73;;;2.27;74.26
40692;BME280;26377;53.344;14.886;2022-11-20T06:21:19;100722.53;;;2.28;74.29
40692;BME280;26377;53.344;14.886;2022-11-20T06:23:44;100721.69;;;2.27;74.27
40692;BME280;26377;53.344;14.886;2022-11-20T06:26:13;100728.66;;;2.27;74.24
40692;BME280;26377;53.344;14.886;2022-11-20T06:28:45;100725.17;;;2.26;74.27
40692;BME280;26377;53.344;14.886;2022-11-20T06:31:14;100729.07;;;2.28;74.33
40692;BME280;26377;53.344;14.886;2022-11-20T06:33:43;100728.64;;;2.28;74.29
40692;BME280;26377;53.344;14.886;2022-11-20T06:36:12;100727.33;;;2.28;74.32
40692;BME280;26377;53.344;14.886;2022-11-20T06:38:41;100729.92;;;2.30;74.29
40692;BME280;26377;53.344;14.886;2022-11-20T06:41:14;100735.19;;;2.28;74.32
40692;BME280;26377;53.344;14.886;2022-11-20T06:43:43;100736.90;;;2.29;74.36
40692;BME280;26377;53.344;14.886;2022-11-20T06:46:12;100728.62;;;2.30;74.32
40692;BME280;26377;53.344;14.886;2022-11-20T06:48:40;100728.15;;;2.30;74.38
40692;BME280;26377;53.344;14.886;2022-11-20T06:51:08;100725.92;;;2.33;74.41
40692;BME280;26377;53.344;14.886;2022-11-20T06:53:36;100724.17;;;2.33;74.37
40692;BME280;26377;53.344;14.886;2022-11-20T06:56:05;100724.66;;;2.31;74.35
40692;BME280;26377;53.344;14.886;2022-11-20T06:58:34;100724.17;;;2.33;74.39
40692;BME280;26377;53.344;14.886;2022-11-20T07:01:10;100727.67;;;2.34;74.36
40692;BME280;26377;53.344;14.886;2022-11-20T07:03:41;100722.84;;;2.35;74.39
40692;BME280;26377;53.344;14.886;2022-11-20T07:06:09;100725.05;;;2.34;74.38
40692;BME280;26377;53.344;14.886;2022-11-20T07:08:37;100727.18;;;2.36;74.41
40692;BME280;26377;53.344;14.886;2022-11-20T07:11:06;100721.94;;;2.36;74.39
40692;BME280;26377;53.344;14.886;2022-11-20T07:13:34;100721.94;;;2.36;74.41
40692;BME280;26377;53.344;14.886;2022-11-20T07:16:04;100716.27;;;2.36;74.42
40692;BME280;26377;53.344;14.886;2022-11-20T07:18:33;100718.84;;;2.38;74.46
40692;BME280;26377;53.344;14.886;2022-11-20T07:21:06;100723.64;;;2.38;74.41
40692;BME280;26377;53.344;14.886;2022-11-20T07:23:31;100721.89;;;2.39;74.42
40692;BME280;26377;53.344;14.886;2022-11-20T07:26:05;100717.07;;;2.40;74.44
40692;BME280;26377;53.344;14.886;2022-11-20T07:28:34;100715.73;;;2.41;74.47
40692;BME280;26377;53.344;14.886;2022-11-20T07:31:03;100712.63;;;2.43;74.42
40692;BME280;26377;53.344;14.886;2022-11-20T07:33:33;100710.01;;;2.43;74.40
40692;BME280;26377;53.344;14.886;2022-11-20T07:36:00;100708.67;;;2.45;74.48
40692;BME280;26377;53.344;14.886;2022-11-20T07:38:29;100710.36;;;2.47;74.46
40692;BME280;26377;53.344;14.886;2022-11-20T07:40:57;100705.52;;;2.50;74.47
40692;BME280;26377;53.344;14.886;2022-11-20T07:43:27;100706.36;;;2.52;74.47
40692;BME280;26377;53.344;14.886;2022-11-20T07:45:58;100710.67;;;2.54;74.51
40692;BME280;26377;53.344;14.886;2022-11-20T07:48:26;100704.94;;;2.56;74.49
40692;BME280;26377;53.344;14.886;2022-11-20T07:50:56;100705.82;;;2.57;74.46
40692;BME280;26377;53.344;14.886;2022-11-20T07:53:23;100706.64;;;2.59;74.44
40692;BME280;26377;53.344;14.886;2022-11-20T07:55:52;100701.34;;;2.62;74.46
40692;BME280;26377;53.344;14.886;2022-11-20T07:58:21;100699.11;;;2.64;74.48
40692;BME280;26377;53.344;14.886;2022-11-20T08:00:48;100694.25;;;2.67;74.47
40692;BME280;26377;53.344;14.886;2022-11-20T08:03:15;100693.33;;;2.69;74.49
40692;BME280;26377;53.344;14.886;2022-11-20T08:05:43;100699.78;;;2.72;74.53
40692;BME280;26377;53.344;14.886;2022-11-20T08:08:10;100694.06;;;2.76;74.51
40692;BME280;26377;53.344;14.886;2022-11-20T08:10:38;100697.09;;;2.77;74.48
40692;BME280;26377;53.344;14.886;2022-11-20T08:13:08;100704.05;;;2.78;74.32
40692;BME280;26377;53.344;14.886;2022-11-20T08:15:55;100695.34;;;2.77;74.37
40692;BME280;26377;53.344;14.886;2022-11-20T08:18:22;100697.47;;;2.79;74.43
40692;BME280;26377;53.344;14.886;2022-11-20T08:20:50;100702.67;;;2.81;74.39
40692;BME280;26377;53.344;14.886;2022-11-20T08:23:19;100696.95;;;2.83;74.37
40692;BME280;26377;53.344;14.886;2022-11-20T08:25:49;100687.72;;;2.86;74.40
40692;BME280;26377;53.344;14.886;2022-11-20T08:28:17;100689.41;;;2.88;74.42
40692;BME280;26377;53.344;14.886;2022-11-20T08:30:45;100690.66;;;2.91;74.37
40692;BME280;26377;53.344;14.886;2022-11-20T08:33:12;100688.42;;;2.94;74.39
40692;BME280;26377;53.344;14.886;2022-11-20T08:35:39;100686.20;;;2.95;74.31
40692;BME280;26377;53.344;14.886;2022-11-20T08:38:08;100692.26;;;2.97;74.28
40692;BME280;26377;53.344;14.886;2022-11-20T08:40:37;100685.30;;;2.96;74.24
40692;BME280;26377;53.344;14.886;2022-11-20T08:43:05;100690.48;;;2.99;74.24
40692;BME280;26377;53.344;14.886;2022-11-20T08:45:32;100690.48;;;2.99;74.19
40692;BME280;26377;53.344;14.886;2022-11-20T08:48:05;100682.62;;;2.99;74.23
40692;BME280;26377;53.344;14.886;2022-11-20T08:53:05;100680.36;;;3.03;74.17
40692;BME280;26377;53.344;14.886;2022-11-20T08:55:33;100681.66;;;3.03;74.27
40692;BME280;26377;53.344;14.886;2022-11-20T08:58:04;100682.04;;;3.05;74.22
40692;BME280;26377;53.344;14.886;2022-11-20T09:00:32;100681.14;;;3.06;74.12
40692;BME280;26377;53.344;14.886;2022-11-20T09:03:02;100681.95;;;3.08;74.20
40692;BME280;26377;53.344;14.886;2022-11-20T09:05:30;100678.02;;;3.08;74.11
40692;BME280;26377;53.344;14.886;2022-11-20T09:07:58;100685.39;;;3.12;74.17
40692;BME280;26377;53.344;14.886;2022-11-20T09:10:27;100680.89;;;3.17;74.20
40692;BME280;26377;53.344;14.886;2022-11-20T09:12:55;100677.34;;;3.19;74.15
40692;BME280;26377;53.344;14.886;2022-11-20T09:15:23;100675.09;;;3.22;74.16
40692;BME280;26377;53.344;14.886;2022-11-20T09:17:56;100673.69;;;3.25;74.10
40692;BME280;26377;53.344;14.886;2022-11-20T09:20:26;100678.44;;;3.28;74.10
40692;BME280;26377;53.344;14.886;2022-11-20T09:22:56;100670.98;;;3.29;74.07
40692;BME280;26377;53.344;14.886;2022-11-20T09:25:24;100676.53;;;3.35;74.08
40692;BME280;26377;53.344;14.886;2022-11-20T09:27:59;100675.62;;;3.36;73.98
40692;BME280;26377;53.344;14.886;2022-11-20T09:30:27;100670.79;;;3.37;73.98
40692;BME280;26377;53.344;14.886;2022-11-20T09:32:54;100669.84;;;3.39;73.94
40692;BME280;26377;53.344;14.886;2022-11-20T09:35:22;100675.88;;;3.43;74.00
40692;BME280;26377;53.344;14.886;2022-11-20T09:37:50;100668.84;;;3.45;73.94
40692;BME280;26377;53.344;14.886;2022-11-20T09:40:23;100667.03;;;3.47;73.92
40692;BME280;26377;53.344;14.886;2022-11-20T09:51:36;100656.25;;;3.59;73.91
40692;BME280;26377;53.344;14.886;2022-11-20T09:54:17;100655.72;;;3.62;73.95
40692;BME280;26377;53.344;14.886;2022-11-20T09:56:53;100653.83;;;3.67;73.86
40692;BME280;26377;53.344;14.886;2022-11-20T09:59:38;100652.55;;;3.66;73.76
40692;BME280;26377;53.344;14.886;2022-11-20T10:05:19;100656.82;;;3.70;73.76
40692;BME280;26377;53.344;14.886;2022-11-20T10:10:44;100651.00;;;3.75;73.65
40692;BME280;26377;53.344;14.886;2022-11-20T10:16:20;100636.91;;;3.79;73.62
40692;BME280;26377;53.344;14.886;2022-11-20T10:22:21;100636.33;;;3.84;73.67
40692;BME280;26377;53.344;14.886;2022-11-20T10:25:15;100638.84;;;3.88;73.56
40692;BME280;26377;53.344;14.886;2022-11-20T10:30:59;100631.92;;;3.86;73.44
40692;BME280;26377;53.344;14.886;2022-11-20T10:33:39;100634.95;;;3.87;73.40
40692;BME280;26377;53.344;14.886;2022-11-20T10:36:23;100625.26;;;3.89;73.37
40692;BME280;26377;53.344;14.886;2022-11-20T10:39:00;100628.22;;;3.93;73.42
40692;BME280;26377;53.344;14.886;2022-11-20T10:41:32;100629.12;;;3.92;73.27
40692;BME280;26377;53.344;14.886;2022-11-20T10:44:26;100629.52;;;3.93;73.29
40692;BME280;26377;53.344;14.886;2022-11-20T10:47:14;100628.72;;;3.91;73.21
40692;BME280;26377;53.344;14.886;2022-11-20T10:49:45;100621.80;;;3.88;73.17
40692;BME280;26377;53.344;14.886;2022-11-20T10:58:16;100621.80;;;3.88;73.10
40692;BME280;26377;53.344;14.886;2022-11-20T11:00:48;100616.55;;;3.88;73.02
40692;BME280;26377;53.344;14.886;2022-11-20T11:03:25;100622.23;;;3.88;72.98
40692;BME280;26377;53.344;14.886;2022-11-20T11:08:43;100619.68;;;3.85;72.91
40692;BME280;26377;53.344;14.886;2022-11-20T11:11:26;100613.59;;;3.84;72.98
40692;BME280;26377;53.344;14.886;2022-11-20T11:14:10;100610.42;;;3.88;73.06
40692;BME280;26377;53.344;14.886;2022-11-20T11:16:51;100610.39;;;3.89;73.00
40692;BME280;26377;53.344;14.886;2022-11-20T11:19:23;100605.94;;;3.91;73.01
40692;BME280;26377;53.344;14.886;2022-11-20T11:21:53;100607.63;;;3.94;72.98
40692;BME280;26377;53.344;14.886;2022-11-20T11:24:25;100603.61;;;3.97;72.88
40692;BME280;26377;53.344;14.886;2022-11-20T11:27:01;100610.98;;;3.99;72.91
40692;BME280;26377;53.344;14.886;2022-11-20T11:29:35;100609.59;;;4.02;72.93
40692;BME280;26377;53.344;14.886;2022-11-20T11:32:21;100600.77;;;4.04;72.89
40692;BME280;26377;53.344;14.886;2022-11-20T11:35:05;100601.12;;;4.07;72.83
40692;BME280;26377;53.344;14.886;2022-11-20T11:37:34;100605.98;;;4.06;72.68
40692;BME280;26377;53.344;14.886;2022-11-20T11:40:05;100604.30;;;4.03;72.67
40692;BME280;26377;53.344;14.886;2022-11-20T11:42:46;100606.60;;;3.99;72.55
40692;BME280;26377;53.344;14.886;2022-11-20T11:45:15;100598.03;;;3.93;72.50
40692;BME280;26377;53.344;14.886;2022-11-20T11:47:48;100602.52;;;3.89;72.48
40692;BME280;26377;53.344;14.886;2022-11-20T11:50:26;100601.31;;;3.85;72.54
40692;BME280;26377;53.344;14.886;2022-11-20T11:53:10;100604.00;;;3.83;72.59
40692;BME280;26377;53.344;14.886;2022-11-20T11:56:08;100604.04;;;3.82;72.49
40692;BME280;26377;53.344;14.886;2022-11-20T11:58:49;100603.70;;;3.78;72.48
40692;BME280;26377;53.344;14.886;2022-11-20T12:01:30;100602.06;;;3.74;72.50
40692;BME280;26377;53.344;14.886;2022-11-20T12:07:19;100592.18;;;3.67;72.50
40692;BME280;26377;53.344;14.886;2022-11-20T12:10:01;100597.56;;;3.63;72.46
40692;BME280;26377;53.344;14.886;2022-11-20T12:12:37;100591.48;;;3.61;72.49
40692;BME280;26377;53.344;14.886;2022-11-20T12:15:13;100587.65;;;3.58;72.36
40692;BME280;26377;53.344;14.886;2022-11-20T12:17:45;100584.22;;;3.54;72.49
40692;BME280;26377;53.344;14.886;2022-11-20T12:20:14;100579.85;;;3.55;72.50
40692;BME280;26377;53.344;14.886;2022-11-20T12:22:55;100580.19;;;3.59;72.57
40692;BME280;26377;53.344;14.886;2022-11-20T12:25:35;100570.46;;;3.62;72.60
40692;BME280;26377;53.344;14.886;2022-11-20T12:36:50;100559.76;;;3.70;72.57
40692;BME280;26377;53.344;14.886;2022-11-20T12:39:30;100561.11;;;3.68;72.45
40692;BME280;26377;53.344;14.886;2022-11-20T12:45:45;100561.65;;;3.65;72.53
40692;BME280;26377;53.344;14.886;2022-11-20T12:51:34;100557.42;;;3.59;72.49
40692;BME280;26377;53.344;14.886;2022-11-20T13:00:08;100550.50;;;3.57;72.47
40692;BME280;26377;53.344;14.886;2022-11-20T13:06:05;100544.98;;;3.51;72.47
40692;BME280;26377;53.344;14.886;2022-11-20T13:08:38;100545.09;;;3.47;72.41
40692;BME280;26377;53.344;14.886;2022-11-20T13:11:18;100548.66;;;3.44;72.45
40692;BME280;26377;53.344;14.886;2022-11-20T13:16:54;100549.27;;;3.38;72.44
40692;BME280;26377;53.344;14.886;2022-11-20T13:19:35;100544.12;;;3.35;72.39
40692;BME280;26377;53.344;14.886;2022-11-20T13:22:03;100543.79;;;3.31;72.37
40692;BME280;26377;53.344;14.886;2022-11-20T13:24:31;100538.61;;;3.28;72.36
40692;BME280;26377;53.344;14.886;2022-11-20T13:27:02;100538.61;;;3.28;72.45
40692;BME280;26377;53.344;14.886;2022-11-20T13:29:44;100533.81;;;3.27;72.50
40692;BME280;26377;53.344;14.886;2022-11-20T13:32:20;100533.34;;;3.29;72.45
40692;BME280;26377;53.344;14.886;2022-11-20T13:37:36;100532.77;;;3.34;72.53
40692;BME280;26377;53.344;14.886;2022-11-20T13:42:55;100530.55;;;3.35;72.51
40692;BME280;26377;53.344;14.886;2022-11-20T13:45:26;100529.70;;;3.35;72.45
40692;BME280;26377;53.344;14.886;2022-11-20T13:48:01;100520.56;;;3.33;72.40
40692;BME280;26377;53.344;14.886;2022-11-20T14:01:58;100518.18;;;3.24;72.40
40692;BME280;26377;53.344;14.886;2022-11-20T14:04:35;100510.79;;;3.22;72.44
40692;BME280;26377;53.344;14.886;2022-11-20T14:07:06;100516.03;;;3.22;72.40
40692;BME280;26377;53.344;14.886;2022-11-20T14:09:34;100513.08;;;3.18;72.37
40692;BME280;26377;53.344;14.886;2022-11-20T14:12:03;100507.09;;;3.13;72.25
40692;BME280;26377;53.344;14.886;2022-11-20T14:14:33;100507.67;;;3.08;72.30
40692;BME280;26377;53.344;14.886;2022-11-20T14:17:20;100506.52;;;3.02;72.26
40692;BME280;26377;53.344;14.886;2022-11-20T14:19:51;100504.91;;;2.97;72.25
40692;BME280;26377;53.344;14.886;2022-11-20T14:22:24;100501.11;;;2.92;72.28
40692;BME280;26377;53.344;14.886;2022-11-20T14:25:06;100503.36;;;2.90;72.35
40692;BME280;26377;53.344;14.886;2022-11-20T14:27:46;100497.75;;;2.87;72.36
40692;BME280;26377;53.344;14.886;2022-11-20T14:30:18;100496.94;;;2.84;72.39
40692;BME280;26377;53.344;14.886;2022-11-20T14:32:48;100497.03;;;2.81;72.37
40692;BME280;26377;53.344;14.886;2022-11-20T14:35:20;100498.41;;;2.78;72.41
40692;BME280;26377;53.344;14.886;2022-11-20T14:37:49;100498.88;;;2.77;72.46
40692;BME280;26377;53.344;14.886;2022-11-20T14:40:31;100504.99;;;2.76;72.45
40692;BME280;26377;53.344;14.886;2022-11-20T14:43:24;100503.75;;;2.75;72.46
40692;BME280;26377;53.344;14.886;2022-11-20T14:45:56;100499.01;;;2.71;72.47